Time;durP1;ratioP1;P1;durP2;ratioP2;P2;SDS_P1;SDS_P2;PMS_P1;PMS_P2;Temp;Humidity;BMP_temperature;BMP_pressure;BME280_temperature;BME280_humidity;BME280_pressure;Samples;Min_cycle;Max_cycle;Signal;HPM_P1;HPM_P2
2022/08/11 00:01:28;;;;;;;7.38;4.22;;;;;;;;;;6257676;28;20048;-58
2022/08/11 00:04:35;;;;;;;9.82;4.32;;;;;;;;;;6250835;28;20053;-59
2022/08/11 00:07:51;;;;;;;7.57;4.50;;;;;;;;;;6252988;28;20056;-58
2022/08/11 00:10:55;;;;;;;8.48;4.03;;;;;;;;;;6252285;28;20075;-59
2022/08/11 00:13:55;;;;;;;8.23;4.30;;;;;;;;;;6250117;28;20196;-59
2022/08/11 00:16:59;;;;;;;8.55;4.35;;;;;;;;;;6255719;28;20048;-59
2022/08/11 00:20:06;;;;;;;9.90;4.30;;;;;;;;;;6253456;28;20052;-58
2022/08/11 00:23:13;;;;;;;8.70;4.80;;;;;;;;;;6248609;28;20053;-57
2022/08/11 00:26:15;;;;;;;10.05;4.72;;;;;;;;;;6255211;28;20056;-59
2022/08/11 00:29:17;;;;;;;11.00;4.57;;;;;;;;;;6253015;28;20048;-60
2022/08/11 00:32:18;;;;;;;9.02;4.40;;;;;;;;;;6253875;28;20056;-57
2022/08/11 00:35:25;;;;;;;6.55;4.07;;;;;;;;;;6252235;28;20706;-58
2022/08/11 00:38:30;;;;;;;9.15;4.18;;;;;;;;;;6253055;28;20076;-59
2022/08/11 00:41:43;;;;;;;12.30;4.95;;;;;;;;;;6254215;28;20153;-58
2022/08/11 00:44:55;;;;;;;10.63;5.07;;;;;;;;;;6251275;28;20102;-58
2022/08/11 00:48:28;;;;;;;10.75;5.03;;;;;;;;;;6254165;28;20171;-58
2022/08/11 00:51:53;;;;;;;10.05;5.35;;;;;;;;;;6254002;28;20172;-57
2022/08/11 00:55:39;;;;;;;9.90;5.15;;;;;;;;;;6251141;28;20056;-60
2022/08/11 00:58:55;;;;;;;11.18;4.40;;;;;;;;;;6254345;28;20056;-59
2022/08/11 01:02:14;;;;;;;8.70;4.40;;;;;;;;;;6252334;28;20040;-57
2022/08/11 01:05:44;;;;;;;9.40;5.00;;;;;;;;;;6251679;28;20488;-58
2022/08/11 01:09:18;;;;;;;10.85;4.78;;;;;;;;;;6254828;28;20130;-58
2022/08/11 01:12:40;;;;;;;9.13;4.63;;;;;;;;;;6251414;28;20079;-59
2022/08/11 01:16:00;;;;;;;;;;;;;;;;;;6253565;28;20045;-57
2022/08/11 01:19:09;;;;;;;9.45;4.60;;;;;;;;;;6252880;28;20043;-59
2022/08/11 01:22:42;;;;;;;6.93;4.45;;;;;;;;;;6248887;28;20135;-58
2022/08/11 01:26:08;;;;;;;11.63;5.82;;;;;;;;;;6255006;28;20055;-60
2022/08/11 01:29:41;;;;;;;12.05;5.10;;;;;;;;;;6263002;28;20049;-60
2022/08/11 01:33:19;;;;;;;9.70;4.50;;;;;;;;;;6267038;28;20406;-59
2022/08/11 01:36:41;;;;;;;8.02;4.72;;;;;;;;;;6268023;28;20041;-59
2022/08/11 01:40:16;;;;;;;9.25;4.55;;;;;;;;;;6267243;28;20102;-60
2022/08/11 01:47:49;;;;;;;7.32;4.57;;;;;;;;;;6264339;28;20127;-59
2022/08/11 01:50:29;;;;;;;12.77;5.47;;;;;;;;;;6263348;28;20055;-59
2022/08/11 01:53:30;;;;;;;10.77;5.68;;;;;;;;;;6264640;28;20040;-59
2022/08/11 01:56:46;;;;;;;9.40;5.45;;;;;;;;;;6273010;28;20049;-59
2022/08/11 01:59:50;;;;;;;10.30;5.10;;;;;;;;;;6270693;28;20563;-60
2022/08/11 02:03:07;;;;;;;9.93;6.65;;;;;;;;;;6269225;28;20071;-59
2022/08/11 02:13:35;;;;;;;12.50;5.70;;;;;;;;;;6267994;28;20049;-56
2022/08/11 02:16:46;;;;;;;10.88;5.97;;;;;;;;;;6286208;28;20044;-58
2022/08/11 02:26:40;;;;;;;;;;;;;;;;;;6281931;28;20411;-56
2022/08/11 02:30:03;;;;;;;9.77;5.20;;;;;;;;;;6281929;28;20379;-59
2022/08/11 02:33:23;;;;;;;10.68;5.88;;;;;;;;;;6269993;28;20041;-58
2022/08/11 02:36:37;;;;;;;13.20;5.55;;;;;;;;;;6268320;28;20477;-57
2022/08/11 02:39:45;;;;;;;10.27;5.22;;;;;;;;;;6277422;28;20040;-58
2022/08/11 02:43:03;;;;;;;11.60;6.50;;;;;;;;;;6281484;28;20052;-59
2022/08/11 02:46:21;;;;;;;14.88;6.60;;;;;;;;;;6288185;28;20041;-58
2022/08/11 02:49:53;;;;;;;13.00;6.95;;;;;;;;;;6287050;28;20083;-57
2022/08/11 02:53:07;;;;;;;13.60;6.97;;;;;;;;;;6285904;28;20051;-58
2022/08/11 02:56:21;;;;;;;17.95;7.30;;;;;;;;;;6284287;28;20144;-58
2022/08/11 02:59:52;;;;;;;10.10;5.93;;;;;;;;;;6287515;28;20105;-59
2022/08/11 03:03:01;;;;;;;14.15;7.00;;;;;;;;;;6274503;28;20053;-58
2022/08/11 03:06:18;;;;;;;11.65;6.55;;;;;;;;;;6284455;28;20118;-59
2022/08/11 03:09:37;;;;;;;13.40;6.88;;;;;;;;;;6287160;28;20045;-58
2022/08/11 03:16:50;;;;;;;13.43;7.28;;;;;;;;;;6196683;28;20124;-58
2022/08/11 03:20:44;;;;;;;16.27;7.13;;;;;;;;;;6284070;28;20435;-59
2022/08/11 03:24:10;;;;;;;12.02;6.68;;;;;;;;;;6194595;28;20095;-57
2022/08/11 03:27:35;;;;;;;15.15;7.18;;;;;;;;;;6290167;28;20118;-59
2022/08/11 03:30:54;;;;;;;14.43;7.38;;;;;;;;;;6287050;28;20052;-58
2022/08/11 03:34:10;;;;;;;14.30;7.50;;;;;;;;;;6285222;28;20045;-58
2022/08/11 03:37:50;;;;;;;12.20;6.90;;;;;;;;;;6288262;28;20078;-58
2022/08/11 03:44:48;;;;;;;13.43;6.82;;;;;;;;;;6290307;28;20036;-59
2022/08/11 03:48:03;;;;;;;14.55;7.93;;;;;;;;;;6281885;28;20523;-59
2022/08/11 03:51:13;;;;;;;14.57;7.45;;;;;;;;;;6279359;28;20047;-58
2022/08/11 03:54:27;;;;;;;13.80;7.93;;;;;;;;;;6291581;28;20045;-59
2022/08/11 03:57:47;;;;;;;13.55;7.13;;;;;;;;;;6286362;28;20048;-58
2022/08/11 04:01:25;;;;;;;13.30;7.72;;;;;;;;;;6284423;28;20049;-56
2022/08/11 04:05:03;;;;;;;13.98;7.50;;;;;;;;;;6283860;28;20044;-57
2022/08/11 04:08:25;;;;;;;13.60;7.93;;;;;;;;;;6283846;28;20057;-58
2022/08/11 04:12:03;;;;;;;13.93;7.47;;;;;;;;;;6275323;28;20139;-59
2022/08/11 04:15:59;;;;;;;15.07;7.65;;;;;;;;;;6267393;28;20415;-58
2022/08/11 04:19:18;;;;;;;13.85;7.30;;;;;;;;;;6267875;28;20041;-58
2022/08/11 04:22:22;;;;;;;12.02;7.20;;;;;;;;;;6267842;28;20486;-59
2022/08/11 04:26:02;;;;;;;10.52;6.90;;;;;;;;;;6268704;28;20117;-60
2022/08/11 04:29:23;;;;;;;13.93;7.35;;;;;;;;;;6268061;28;20056;-58
2022/08/11 04:32:52;;;;;;;14.13;7.75;;;;;;;;;;6261005;28;20179;-58
2022/08/11 04:40:23;;;;;;;13.63;7.75;;;;;;;;;;6266863;28;20099;-58
2022/08/11 04:44:06;;;;;;;18.25;9.23;;;;;;;;;;6267472;28;21470;-58
2022/08/11 05:01:39;;;;;;;15.93;8.48;;;;;;;;;;6270253;28;20049;-58
2022/08/11 05:02:37;;;;;;;;;;;;;;;;;;6270467;28;20135;-58
2022/08/11 05:06:04;;;;;;;14.85;8.15;;;;;;;;;;6268917;28;19931;-58
2022/08/11 05:09:27;;;;;;;12.10;7.32;;;;;;;;;;6274378;28;20135;-58
2022/08/11 05:12:41;;;;;;;16.13;7.95;;;;;;;;;;6263894;28;20446;-58
2022/08/11 05:36:40;;;;;;;12.38;6.85;;;;;;;;;;6272465;28;20135;-58
2022/08/11 05:56:58;;;;;;;13.55;6.88;;;;;;;;;;6263640;28;20479;-58
2022/08/11 06:00:00;;;;;;;19.77;7.28;;;;;;;;;;6272986;28;20452;-58
2022/08/11 06:03:06;;;;;;;15.45;6.43;;;;;;;;;;6280848;28;20401;-57
2022/08/11 06:06:08;;;;;;;11.35;6.65;;;;;;;;;;6282962;28;20060;-58
2022/08/11 06:09:13;;;;;;;14.48;6.57;;;;;;;;;;6289610;28;20554;-57
2022/08/11 06:12:22;;;;;;;11.25;6.15;;;;;;;;;;6289710;28;20052;-57
2022/08/11 06:15:24;;;;;;;12.02;5.57;;;;;;;;;;6280083;28;20493;-58
2022/08/11 06:18:26;;;;;;;10.05;5.80;;;;;;;;;;6265895;28;20060;-57
2022/08/11 06:21:27;;;;;;;10.93;5.13;;;;;;;;;;6266287;28;20514;-53
2022/08/11 06:24:30;;;;;;;14.52;6.15;;;;;;;;;;6265855;28;20077;-57
2022/08/11 06:27:35;;;;;;;9.60;5.22;;;;;;;;;;6262339;28;20098;-58
2022/08/11 06:30:44;;;;;;;15.75;5.68;;;;;;;;;;6266066;28;20118;-58
2022/08/11 06:34:10;;;;;;;10.93;5.50;;;;;;;;;;6269059;28;20049;-57
2022/08/11 06:37:19;;;;;;;10.95;5.78;;;;;;;;;;6260671;28;20049;-59
2022/08/11 06:44:11;;;;;;;20.63;9.05;;;;;;;;;;6260083;28;20075;-58
2022/08/11 06:47:16;;;;;;;19.53;9.10;;;;;;;;;;6261414;28;20148;-56
2022/08/11 06:53:49;;;;;;;11.65;6.50;;;;;;;;;;6264434;28;20041;-59
2022/08/11 07:00:28;;;;;;;12.25;5.97;;;;;;;;;;6264816;28;20094;-58
2022/08/11 07:03:35;;;;;;;10.45;5.63;;;;;;;;;;6260594;28;20048;-56
2022/08/11 07:28:54;;;;;;;15.87;5.90;;;;;;;;;;6277960;28;20143;-58
2022/08/11 07:31:59;;;;;;;13.77;5.80;;;;;;;;;;6285379;28;20301;-57
2022/08/11 07:35:12;;;;;;;12.25;5.47;;;;;;;;;;6280603;28;20051;-60
2022/08/11 07:38:20;;;;;;;11.60;5.03;;;;;;;;;;6273342;28;20045;-59
2022/08/11 07:41:23;;;;;;;10.35;4.35;;;;;;;;;;6281370;28;20143;-57
2022/08/11 07:44:28;;;;;;;8.90;4.07;;;;;;;;;;6281166;28;20110;-59
2022/08/11 07:54:09;;;;;;;10.13;3.72;;;;;;;;;;6281760;28;20139;-59
2022/08/11 08:20:45;;;;;;;7.70;3.30;;;;;;;;;;6280633;28;20045;-58
2022/08/11 08:23:46;;;;;;;7.95;3.13;;;;;;;;;;6283816;28;20044;-59
2022/08/11 08:26:57;;;;;;;6.93;3.37;;;;;;;;;;6275598;28;20051;-59
2022/08/11 08:33:18;;;;;;;4.85;2.20;;;;;;;;;;6266975;28;20479;-55
2022/08/11 08:36:22;;;;;;;6.67;2.57;;;;;;;;;;6265298;28;20060;-56
2022/08/11 08:39:22;;;;;;;4.30;2.70;;;;;;;;;;6265976;28;20057;-60
2022/08/11 08:42:26;;;;;;;6.27;2.90;;;;;;;;;;6263300;28;20543;-59
2022/08/11 08:45:28;;;;;;;4.63;2.50;;;;;;;;;;6266732;28;20588;-59
2022/08/11 08:48:30;;;;;;;6.43;2.28;;;;;;;;;;6264173;28;20055;-60
2022/08/11 08:51:36;;;;;;;5.70;2.17;;;;;;;;;;6264130;28;20479;-59
2022/08/11 08:54:40;;;;;;;5.20;2.50;;;;;;;;;;6265070;28;20073;-59
2022/08/11 08:57:44;;;;;;;6.65;2.40;;;;;;;;;;6278199;28;20077;-60
2022/08/11 09:00:46;;;;;;;5.55;2.60;;;;;;;;;;6265986;28;20044;-60
2022/08/11 09:03:46;;;;;;;5.05;2.10;;;;;;;;;;6285792;28;20071;-59
2022/08/11 09:06:47;;;;;;;6.17;2.63;;;;;;;;;;6283156;28;20040;-59
2022/08/11 09:09:51;;;;;;;6.63;2.70;;;;;;;;;;6279135;28;20048;-59
2022/08/11 09:12:52;;;;;;;5.32;2.58;;;;;;;;;;6275449;28;20054;-59
2022/08/11 09:15:53;;;;;;;5.10;2.90;;;;;;;;;;6260383;28;20055;-58
2022/08/11 09:18:53;;;;;;;5.47;2.67;;;;;;;;;;6263661;28;20056;-59
2022/08/11 09:28:35;;;;;;;6.72;2.90;;;;;;;;;;6266523;28;20094;-60
2022/08/11 09:31:36;;;;;;;5.55;2.55;;;;;;;;;;6263238;28;20057;-57
2022/08/11 09:34:38;;;;;;;4.75;2.17;;;;;;;;;;6264650;28;20093;-56
2022/08/11 09:41:04;;;;;;;6.05;2.80;;;;;;;;;;6260919;28;20059;-58
2022/08/11 09:47:30;;;;;;;13.20;5.18;;;;;;;;;;6266546;28;20503;-59
2022/08/11 09:50:32;;;;;;;12.30;4.88;;;;;;;;;;6280917;28;20131;-59
2022/08/11 09:53:38;;;;;;;11.30;4.35;;;;;;;;;;6283682;28;20139;-57
2022/08/11 09:59:58;;;;;;;7.78;3.80;;;;;;;;;;6266097;28;20163;-57
2022/08/11 10:03:01;;;;;;;9.27;3.60;;;;;;;;;;6285232;28;20041;-59
2022/08/11 10:09:23;;;;;;;6.70;3.42;;;;;;;;;;6264755;28;20053;-59
2022/08/11 10:12:26;;;;;;;;;;;;;;;;;;6262301;28;20049;-58
2022/08/11 10:15:38;;;;;;;6.47;2.85;;;;;;;;;;6264917;28;19951;-58
2022/08/11 10:18:41;;;;;;;4.15;2.40;;;;;;;;;;6258751;28;20045;-59
2022/08/11 10:26:48;;;;;;;4.60;3.03;;;;;;;;;;6260647;28;20131;-59
2022/08/11 10:28:26;;;;;;;6.60;3.10;;;;;;;;;;6275736;28;20101;-59
2022/08/11 10:34:48;;;;;;;6.45;3.00;;;;;;;;;;6281576;28;20124;-57
2022/08/11 10:37:49;;;;;;;8.50;4.30;;;;;;;;;;6282816;28;20131;-58
2022/08/11 10:43:01;;;;;;;7.93;3.70;;;;;;;;;;6275745;28;20048;-59
2022/08/11 10:44:11;;;;;;;5.53;3.13;;;;;;;;;;6286440;28;20140;-59
2022/08/11 11:00:33;;;;;;;7.53;2.97;;;;;;;;;;6261932;28;20029;-58
2022/08/11 11:03:34;;;;;;;;;;;;;;;;;;6265026;28;20045;-59
2022/08/11 11:06:50;;;;;;;5.90;2.67;;;;;;;;;;6265246;28;19921;-58
2022/08/11 11:09:57;;;;;;;5.65;2.83;;;;;;;;;;6258209;28;20483;-58
2022/08/11 11:19:38;;;;;;;7.25;2.97;;;;;;;;;;6260491;28;20109;-56
2022/08/11 11:22:41;;;;;;;5.47;2.30;;;;;;;;;;6260668;28;20143;-59
2022/08/11 11:26:09;;;;;;;6.63;2.58;;;;;;;;;;6258705;28;20077;-60
2022/08/11 11:29:24;;;;;;;6.22;2.78;;;;;;;;;;6263976;28;20762;-59
2022/08/11 11:32:33;;;;;;;4.55;2.80;;;;;;;;;;6263040;28;20057;-59
2022/08/11 11:35:48;;;;;;;5.93;2.75;;;;;;;;;;6258332;28;20565;-58
2022/08/11 11:38:49;;;;;;;6.90;2.60;;;;;;;;;;6260952;28;20052;-58
2022/08/11 11:41:53;;;;;;;7.73;3.27;;;;;;;;;;6259133;28;20132;-58
2022/08/11 11:44:54;;;;;;;5.55;2.60;;;;;;;;;;6267761;28;20048;-61
2022/08/11 11:47:58;;;;;;;9.57;2.92;;;;;;;;;;6263459;28;20061;-60
2022/08/11 11:50:59;;;;;;;5.03;2.53;;;;;;;;;;6262933;28;20053;-60
2022/08/11 11:54:02;;;;;;;5.80;2.30;;;;;;;;;;6268213;28;20430;-58
2022/08/11 12:03:48;;;;;;;7.20;2.33;;;;;;;;;;6264096;28;20053;-58
2022/08/11 12:06:51;;;;;;;8.00;2.50;;;;;;;;;;6264869;28;20048;-56
2022/08/11 12:09:52;;;;;;;7.18;2.60;;;;;;;;;;6266442;28;20049;-59
2022/08/11 12:16:14;;;;;;;5.15;2.40;;;;;;;;;;6260759;28;20024;-58
2022/08/11 12:19:21;;;;;;;5.57;2.60;;;;;;;;;;6265083;28;20052;-58
2022/08/11 12:29:06;;;;;;;4.53;2.33;;;;;;;;;;6251699;28;20060;-58
2022/08/11 12:32:07;;;;;;;7.30;2.70;;;;;;;;;;6264549;28;20076;-58
2022/08/11 12:35:08;;;;;;;5.57;2.83;;;;;;;;;;6264720;28;20055;-58
2022/08/11 12:38:09;;;;;;;11.10;3.10;;;;;;;;;;6268904;28;20301;-56
2022/08/11 12:54:39;;;;;;;6.50;2.05;;;;;;;;;;6262637;28;20048;-58
2022/08/11 13:07:48;;;;;;;6.72;2.13;;;;;;;;;;6264134;28;20044;-59
2022/08/11 13:14:09;;;;;;;4.38;1.95;;;;;;;;;;6261067;28;20040;-59
2022/08/11 13:17:21;;;;;;;4.38;1.80;;;;;;;;;;6263065;28;20134;-57
2022/08/11 13:20:22;;;;;;;;;;;;;;;;;;6262012;28;20052;-59
2022/08/11 13:23:25;;;;;;;3.72;1.77;;;;;;;;;;6262680;28;20455;-58
2022/08/11 13:26:26;;;;;;;4.07;1.95;;;;;;;;;;6266047;28;20133;-60
2022/08/11 13:29:28;;;;;;;6.90;2.20;;;;;;;;;;6263866;28;20472;-59
2022/08/11 13:32:28;;;;;;;5.68;2.13;;;;;;;;;;6262894;28;20128;-59
2022/08/11 13:35:30;;;;;;;4.50;1.90;;;;;;;;;;6265720;28;20446;-57
2022/08/11 13:38:31;;;;;;;5.57;1.85;;;;;;;;;;6261251;28;20490;-59
2022/08/11 13:41:42;;;;;;;4.32;1.70;;;;;;;;;;6271877;28;20144;-59
2022/08/11 13:44:43;;;;;;;3.70;1.85;;;;;;;;;;6276404;28;20051;-58
2022/08/11 13:47:44;;;;;;;3.50;1.90;;;;;;;;;;6269397;28;20057;-60
2022/08/11 13:54:12;;;;;;;22.55;3.05;;;;;;;;;;6258075;28;20502;-58
2022/08/11 13:57:14;;;;;;;12.93;2.50;;;;;;;;;;6270451;28;20566;-59
2022/08/11 14:00:15;;;;;;;14.68;2.80;;;;;;;;;;6277758;28;20139;-59
2022/08/11 14:03:22;;;;;;;8.73;2.43;;;;;;;;;;6280039;28;20060;-58
2022/08/11 14:06:23;;;;;;;5.90;2.22;;;;;;;;;;6280591;28;20139;-59
2022/08/11 14:09:26;;;;;;;9.02;2.30;;;;;;;;;;6276616;28;20365;-59
2022/08/11 14:15:51;;;;;;;10.15;3.20;;;;;;;;;;6267372;28;20045;-56
2022/08/11 14:18:56;;;;;;;5.82;3.38;;;;;;;;;;6254322;28;20091;-56
2022/08/11 14:22:05;;;;;;;8.20;3.80;;;;;;;;;;6252924;28;20087;-58
2022/08/11 14:25:07;;;;;;;9.52;4.50;;;;;;;;;;6255638;28;20135;-56
2022/08/11 14:28:08;;;;;;;8.82;5.47;;;;;;;;;;6255727;28;20549;-57
2022/08/11 14:31:09;;;;;;;9.17;4.27;;;;;;;;;;6254317;28;20049;-59
2022/08/11 14:34:13;;;;;;;8.77;3.70;;;;;;;;;;6248351;28;20146;-57
2022/08/11 14:37:18;;;;;;;6.28;3.75;;;;;;;;;;6257584;28;20057;-57
2022/08/11 14:47:06;;;;;;;7.20;2.92;;;;;;;;;;6248913;28;20071;-56
2022/08/11 14:50:12;;;;;;;5.38;2.55;;;;;;;;;;6246624;28;20522;-58
2022/08/11 14:53:14;;;;;;;6.47;2.50;;;;;;;;;;6249437;28;20044;-57
2022/08/11 14:59:35;;;;;;;4.57;1.63;;;;;;;;;;6250303;28;20049;-56
2022/08/11 15:06:00;;;;;;;7.68;2.83;;;;;;;;;;6250092;28;20711;-61
2022/08/11 15:09:03;;;;;;;6.18;2.30;;;;;;;;;;6257134;28;20418;-57
2022/08/11 15:12:15;;;;;;;;;;;;;;;;;;6250982;28;20049;-59
2022/08/11 15:18:36;;;;;;;7.63;2.10;;;;;;;;;;6255576;28;19929;-54
2022/08/11 15:24:58;;;;;;;4.88;2.20;;;;;;;;;;6254868;28;20056;-55
2022/08/11 15:37:52;;;;;;;5.65;2.20;;;;;;;;;;6266758;28;20502;-58
2022/08/11 15:47:40;;;;;;;4.55;1.90;;;;;;;;;;6262685;28;20573;-58
2022/08/11 15:50:47;;;;;;;6.03;1.80;;;;;;;;;;6259013;28;20049;-55
2022/08/11 15:53:52;;;;;;;3.45;1.88;;;;;;;;;;6261251;28;20538;-58
2022/08/11 15:56:54;;;;;;;4.57;1.70;;;;;;;;;;6259507;28;20459;-56
2022/08/11 16:07:00;;;;;;;4.50;2.28;;;;;;;;;;6256186;28;20061;-53
2022/08/11 16:10:11;;;;;;;3.72;2.05;;;;;;;;;;6257611;28;20076;-60
2022/08/11 16:16:15;;;;;;;4.88;2.70;;;;;;;;;;6259103;28;20057;-58
2022/08/11 16:19:18;;;;;;;6.15;3.10;;;;;;;;;;6258243;28;20132;-56
2022/08/11 16:22:37;;;;;;;4.85;2.70;;;;;;;;;;6254011;28;20063;-59
2022/08/11 16:25:39;;;;;;;4.78;2.95;;;;;;;;;;6255634;28;20159;-58
2022/08/11 16:28:40;;;;;;;;;;;;;;;;;;6258396;28;20561;-59
2022/08/11 16:31:41;;;;;;;5.63;2.10;;;;;;;;;;6256662;28;19925;-60
2022/08/11 16:48:13;;;;;;;8.95;3.47;;;;;;;;;;6258012;28;20064;-59
2022/08/11 16:51:14;;;;;;;6.88;3.28;;;;;;;;;;6256586;28;20063;-60
2022/08/11 16:54:14;;;;;;;7.10;3.70;;;;;;;;;;6258730;28;20053;-61
2022/08/11 17:00:40;;;;;;;8.35;3.78;;;;;;;;;;6254476;28;20563;-58
2022/08/11 17:14:15;;;;;;;10.10;4.25;;;;;;;;;;6259708;28;20052;-59
2022/08/11 17:17:24;;;;;;;11.50;4.60;;;;;;;;;;6258437;28;20048;-61
2022/08/11 17:20:27;;;;;;;10.70;4.63;;;;;;;;;;6256655;28;20067;-60
2022/08/11 17:27:01;;;;;;;10.18;4.32;;;;;;;;;;6241149;28;20483;-59
2022/08/11 17:30:05;;;;;;;8.68;4.65;;;;;;;;;;6257981;28;20049;-60
2022/08/11 17:36:26;;;;;;;8.82;4.35;;;;;;;;;;6259664;28;20056;-59
2022/08/11 17:39:30;;;;;;;11.00;4.80;;;;;;;;;;6257822;28;20412;-59
2022/08/11 17:49:15;;;;;;;10.88;4.47;;;;;;;;;;6260635;28;20788;-59
2022/08/11 18:05:45;;;;;;;9.88;4.30;;;;;;;;;;6259128;28;20075;-59
